Blue Oak Ranch Reserve, California Weather observations

Data are for 10 minute period ending at time listed.
 Day   Time   Solar   Ave.   Ave.  Ave.  Vector  Max.   Baro.   Total    
  of    of     Rad.   Air    Rel.  Wind   Wind   Wind  Press.  Precip.   
Year   Day            Temp.  Hum.  Speed  Dir.   Gust                    
2026   (PST)  Kw/m2    F      %     mph   deg.    mph    mb.     in.     
-------------------------------------------------------------------------
 246    0:30   0.00   50.1    73    1.4   314     3.4   950.8    0.00 
 246    0:40   0.00   50.0    74    1.1   300     2.7   950.8    0.00 
 246    0:50   0.00   50.6    72    1.5    14     3.4   950.7    0.00 
 246    1:00   0.00   51.0    72    3.1    23     5.3   950.7    0.00 
 246    1:10   0.00   51.5    71    2.8    15     4.2   950.6    0.00 
 246    1:20   0.00   51.2    71    1.5    24     4.3   950.6    0.00 
 246    1:30   0.00   50.4    72    2.5    10     4.8   950.5    0.00 
 246    1:40   0.00   50.4    72    2.3   356     4.6   950.3    0.00 
 246    1:50   0.00   49.6    75    1.6   278     3.3   950.3    0.00 
 246    2:00   0.00   49.1    76    1.7   277     3.7   950.2    0.00 
 246    2:10   0.00   48.9    76    1.6   305     3.6   950.2    0.00 
 246    2:20   0.00   48.6    76    1.0   317     2.8   950.1    0.00 
 246    2:30   0.00   48.4    77    1.5   280     3.4   950.1    0.00 
 246    2:40   0.00   48.1    78    0.6   251     1.8   950.2    0.00 
 246    2:50   0.00   47.6    77    0.1   265     1.1   950.2    0.00 
 246    3:00   0.00   47.1    79    0.4   280     1.3   950.1    0.00 
 246    3:10   0.00   47.0    79    0.8   284     2.2   950.0    0.00 
 246    3:20   0.00   47.0    79    1.8   282     3.1   949.9    0.00 
 246    3:30   0.00   47.4    78    0.5   288     1.8   949.8    0.00 
 246    3:40   0.00   47.2    78    1.0    84     1.9   949.7    0.00 
 246    3:50   0.00   47.1    78    0.0    85     0.8   949.6    0.00 
 246    4:00   0.00   47.2    78    1.0    35     2.0   949.6    0.00 
 246    4:10   0.00   47.3    77    0.3    35     1.2   949.4    0.00 
 246    4:20   0.00   47.3    78    1.9   293     2.7   949.4    0.00 
 246    4:30   0.00   46.9    78    1.0    48     2.4   949.5    0.00 
 246    4:40   0.00   47.0    79    0.2    50     1.4   949.4    0.00 
 246    4:50   0.00   47.2    78    0.8   273     1.8   949.3    0.00 
 246    5:00   0.00   46.9    79    0.0   272     0.5   949.3    0.00 
 246    5:10   0.00   46.9    79    0.0   268     1.0   949.3    0.00 
 246    5:20   0.00   47.1    78    0.1    48     1.2   949.3    0.00 
 246    5:30   0.00   46.8    80    0.7   283     2.2   949.3    0.00 
 246    5:40   0.00   46.5    80    0.0   274     0.7   949.3    0.00 
 246    5:50   0.01   46.6    81    0.0   273     0.5   949.4    0.00 
 246    6:00   0.01   47.1    81    0.1   273     1.0   949.4    0.00 
 246    6:10   0.01   47.1    81    1.4   282     2.0   949.5    0.00 
 246    6:20   0.01   47.2    81    1.4   282     2.8   949.5    0.00 
 246    6:30   0.02   47.4    81    0.0   286     0.7   949.6    0.00 
 246    6:40   0.13   48.3    82    0.0   295     0.4   949.7    0.00 
 246    6:50   0.16   51.9    75    0.2    88     1.0   949.7    0.00 
 246    7:00   0.20   56.7    64    0.1   122     0.7   949.8    0.00 
 246    7:10   0.23   59.6    59    0.0     0     0.0   949.9    0.00 
 246    7:20   0.26   63.3    52    0.1   119     1.0   949.8    0.00 
 246    7:30   0.30   63.1    53    1.1   138     2.0   949.8    0.00 
 246    7:40   0.33   63.4    54    0.7   141     1.8   949.8    0.00 
 246    7:50   0.37   64.5    53    1.3   272     4.4   949.9    0.00 
 246    8:00   0.40   64.9    54    3.2   250     6.1   949.8    0.00 
 246    8:10   0.43   65.1    55    3.7   262     7.4   949.8    0.00 
 246    8:20   0.47   65.7    55    3.9   271     7.7   949.7    0.00 
 246    8:30   0.50   66.4    54    4.2   278     7.6   949.7    0.00 
 246    8:40   0.53   67.6    52    4.4   266     8.5   949.7    0.00 
 246    8:50   0.56   66.3    55    2.7   227     7.4   949.5    0.00 
 246    9:00   0.59   65.7    56    5.5   223     9.6   949.5    0.00 
 246    9:10   0.62   66.8    55    5.5   249    10.3   949.5    0.00 
 246    9:20   0.65   67.0    56    6.1   249    11.0   949.5    0.00 
 246    9:30   0.68   66.7    56    6.3   236    10.7   949.5    0.00 
 246    9:40   0.70   66.5    56    6.2   227    10.7   949.4    0.00 
 246    9:50   0.73   67.4    55    5.1   232    10.2   949.4    0.00 
 246   10:00   0.75   67.1    55    6.1   231    10.7   949.4    0.00 
 246   10:10   0.77   67.6    54    6.7   238    10.8   949.4    0.00 
 246   10:20   0.79   68.3    53    6.2   248    12.9   949.6    0.00 
 246   10:30   0.78   68.4    52    6.2   249    12.4   949.5    0.00 
 246   10:40   0.79   69.3    50    5.8   258     9.6   949.5    0.00 
 246   10:50   0.83   68.9    51    6.7   229    11.2   949.4    0.00 
 246   11:00   0.85   68.9    50    6.2   242    10.7   949.4    0.00 
 246   11:10   0.86   69.6    49    6.2   246    13.4   949.3    0.00 
 246   11:20   0.87   70.5    47    5.9   258    12.1   949.2    0.00 
 246   11:30   0.88   71.0    47    6.3   266    12.6   949.1    0.00 
 246   11:40   0.89   71.5    47    6.3   258    12.0   949.1    0.00 
 246   11:50   0.90   71.5    47    5.1   258    11.2   949.0    0.00 
 246   12:00   0.90   71.8    47    5.9   247    10.6   948.8    0.00 
 246   12:10   0.72   71.6    47    4.4   244    12.1   948.7    0.00 
 246   12:20   0.63   71.3    48    6.8   245    12.6   948.6    0.00 
 246   12:30   0.60   69.9    50    4.6   236    12.0   948.6    0.00 
 246   12:40   0.73   70.6    49    6.2   249    16.4   948.5    0.00 
 246   12:50   0.68   72.3    47    6.9   264    15.2   948.5    0.00 
 246   13:00   0.91   72.5    47    5.8   231    11.5   948.4    0.00 
 246   13:10   0.93   72.9    46    5.4   243    10.2   948.4    0.00 
 246   13:20   0.90   73.8    45    6.0   248    11.2   948.3    0.00 
 246   13:30   0.87   72.6    47    5.6   206    10.7   948.2    0.00 
 246   13:40   0.75   73.2    46    6.1   227    13.4   948.1    0.00 
 246   13:50   0.89   74.4    44    6.7   248    12.0   948.1    0.00 
 246   14:00   0.80   74.9    44    5.8   250    13.3   948.0    0.00 
 246   14:10   0.91   75.5    44    7.8   274    13.1   948.0    0.00 
 246   14:20   0.90   76.3    44    9.4   287    15.9   947.9    0.00 
 246   14:30   0.88   76.2    44    8.6   281    13.2   947.8    0.00 
 246   14:40   0.76   75.7    45    5.2   252    10.7   947.7    0.00 
 246   14:50   0.76   74.9    45    5.8   271    11.0   947.5    0.00 
 246   15:00   0.70   73.7    47    6.8   225    11.0   947.3    0.00 
 246   15:10   0.66   73.4    49    7.6   243    15.5   947.2    0.00 
 246   15:20   0.63   72.3    51    7.4   230    14.3   947.1    0.00 
 246   15:30   0.59   72.7    50    6.0   250    12.1   947.1    0.00 
 246   15:40   0.55   73.4    49    6.8   272    12.6   947.0    0.00 
 246   15:50   0.52   73.5    49    7.7   267    11.4   946.9    0.00 
 246   16:00   0.48   73.5    49    7.2   260    13.6   946.9    0.00 
 246   16:10   0.45   72.1    52    6.6   269    14.4   946.9    0.00 
 246   16:20   0.42   71.7    53   10.1   292    15.3   946.8    0.00 
 246   16:30   0.40   70.3    55    9.1   288    14.8   946.8    0.00 
 246   16:40   0.38   71.3    54    7.7   281    14.0   946.8    0.00 
 246   16:50   0.35   70.8    56    8.2   293    12.6   946.9    0.00 
 246   17:00   0.29   69.0    59    9.7   296    15.0   946.9    0.00 
 246   17:10   0.25   68.0    61    8.3   301    12.4   946.9    0.00 
 246   17:20   0.22   67.4    61   10.3   293    15.1   946.9    0.00 
 246   17:30   0.13   66.1    64    9.8   298    16.0   946.9    0.00 
 246   17:40   0.15   65.3    65    7.5   289    11.3   946.9    0.00 
 246   17:50   0.12   65.5    65    7.7   283    11.4   946.9    0.00 
 246   18:00   0.10   64.5    68    7.2   299    10.9   946.8    0.00 
 246   18:10   0.03   63.8    70    7.0   295    11.4   946.8    0.00 
 246   18:20   0.01   63.0    73    7.5   300    11.0   946.8    0.00 
 246   18:30   0.01   62.1    77    7.6   300    12.8   946.7    0.00 
 246   18:40   0.00   61.5    79    7.0   310    10.6   946.8    0.00 
 246   18:50   0.00   61.3    80    6.0   307     9.9   946.8    0.00 
 246   19:00   0.00   61.0    82    4.3   290     9.1   946.7    0.00 
 246   19:10   0.00   60.8    82    4.5   299     7.7   946.7    0.00 
 246   19:20   0.00   60.7    82    3.8   292     6.7   946.7    0.00 
 246   19:30   0.00   60.3    83    3.5   296     5.6   946.8    0.00 
 246   19:40   0.00   60.1    84    3.1   293     4.7   946.8    0.00 
 246   19:50   0.00   59.9    85    2.4   307     4.3   946.9    0.00 
 246   20:00   0.00   59.7    85    1.8   306     3.8   947.0    0.00 
 246   20:10   0.00   59.6    86    0.9   275     3.9   947.0    0.00 
 246   20:20   0.00   59.2    86    0.4   210     1.5   947.0    0.00 
 246   20:30   0.00   58.7    86    0.3   179     1.3   947.1    0.00 
 246   20:40   0.00   58.7    86    0.8   148     1.8   947.2    0.00 
 246   20:50   0.00   59.0    86    0.7   183     2.0   947.2    0.00 
 246   21:00   0.00   59.6    86    0.2   270     1.0   947.1    0.00 
 246   21:10   0.00   60.0    85    0.7   227     2.6   947.0    0.00 
 246   21:20   0.00   60.2    84    1.5   236     3.6   946.9    0.00 
 246   21:30   0.00   60.5    84    2.9   262     4.5   946.9    0.00 
 246   21:40   0.00   60.7    83    1.5   251     3.7   946.8    0.00 
 246   21:50   0.00   60.7    84    2.4   243     4.8   946.8    0.00 
 246   22:00   0.00   60.5    84    2.8   240     5.2   946.7    0.00 
 246   22:10   0.00   60.3    85    2.5   207     5.0   946.7    0.00 
 246   22:20   0.00   60.2    86    2.6   184     5.0   946.6    0.00 
 246   22:30   0.00   60.1    86    2.3   188     4.0   946.6    0.00 
 246   22:40   0.00   60.0    87    2.1   209     5.0   946.6    0.00 
 246   22:50   0.00   59.8    89    2.9   246     7.0   946.6    0.00 
 246   23:00   0.00   59.7    91    3.9   266     6.9   946.5    0.00 
 246   23:10   0.00   59.6    91    3.7   269     6.3   946.5    0.00 
 246   23:20   0.00   58.9    92    5.7   265     8.5   946.5    0.00 
 246   23:30   0.00   57.7    93    5.8   298     8.4   946.6    0.00 
 246   23:40   0.00   56.7    94    6.4   296     9.0   946.6    0.00 
 246   23:50   0.00   56.3    95    5.7   292     9.0   946.6    0.00 
 247    0:00   0.00   56.3    95    6.0   288    10.2   946.7    0.00 
 247    0:10   0.00   56.2    95    4.0   283     8.0   946.7    0.00 
 247    0:20   0.00   56.2    95    3.4   269     6.1   946.7    0.00 

Return to Blue Oak Ranch Reserve graphs page.


Western Regional Climate Center,wrcc@dri.edu